Time;durP1;ratioP1;P1;durP2;ratioP2;P2;SDS_P1;SDS_P2;PMS_P1;PMS_P2;Temp;Humidity;BMP_temperature;BMP_pressure;BME280_temperature;BME280_humidity;BME280_pressure;Samples;Min_cycle;Max_cycle;Signal;HPM_P1;HPM_P2
2022/10/12 00:00:18;;;;;;;5.22;3.20;;;;;;;16.83;54.78;100045.13;5073498;28;20029;-81
2022/10/12 00:02:43;;;;;;;4.47;3.17;;;;;;;16.94;54.79;100057.84;5072404;28;20044;-81
2022/10/12 00:05:09;;;;;;;3.55;3.17;;;;;;;17.37;54.68;100132.94;5074179;28;20107;-81
2022/10/12 00:07:35;;;;;;;5.93;3.45;;;;;;;17.14;54.71;100089.84;5073471;28;20504;-81
2022/10/12 00:10:01;;;;;;;6.13;3.60;;;;;;;17.64;54.80;100180.94;5073379;28;20031;-81
2022/10/12 00:12:27;;;;;;;9.57;3.72;;;;;;;17.02;54.86;100086.97;5073544;28;20020;-81
2022/10/12 00:14:52;;;;;;;8.05;3.30;;;;;;;16.90;55.17;100072.63;5071973;28;20497;-81
2022/10/12 00:17:18;;;;;;;5.57;3.63;;;;;;;17.40;55.02;100182.41;5073502;28;20448;-81
2022/10/12 00:19:44;;;;;;;4.10;3.30;;;;;;;17.43;55.11;100165.97;5072026;28;20051;-81
2022/10/12 00:22:09;;;;;;;5.28;3.13;;;;;;;17.10;55.36;100126.81;5071957;28;20549;-81
2022/10/12 00:24:35;;;;;;;12.60;3.95;;;;;;;17.06;55.33;100133.53;5071839;28;20391;-81
2022/10/12 00:27:00;;;;;;;5.32;3.03;;;;;;;17.04;55.40;100119.59;5073219;28;20024;-82
2022/10/12 00:29:26;;;;;;;4.22;3.40;;;;;;;16.77;55.11;100075.28;5073087;28;20424;-81
2022/10/12 00:31:51;;;;;;;6.47;3.50;;;;;;;17.41;54.94;100165.38;5073030;28;20028;-80
2022/10/12 00:34:16;;;;;;;4.68;3.08;;;;;;;17.27;55.07;100169.06;5072791;28;20385;-80
2022/10/12 00:36:42;;;;;;;4.47;2.92;;;;;;;15.72;55.21;99911.59;5073080;28;20020;-81
2022/10/12 00:39:09;;;;;;;5.00;3.05;;;;;;;16.69;55.36;100067.50;5071597;28;20021;-81
2022/10/12 00:41:38;;;;;;;6.00;3.20;;;;;;;17.22;55.48;100161.69;5071513;28;20017;-81
2022/10/12 00:44:33;;;;;;;5.72;2.88;;;;;;;17.28;55.77;100168.06;5071919;28;20013;-81
2022/10/12 00:47:02;;;;;;;6.05;2.70;;;;;;;17.17;55.65;100150.00;5072757;28;20127;-81
2022/10/12 00:49:28;;;;;;;6.15;3.08;;;;;;;16.80;55.53;100094.34;5072796;28;20524;-81
2022/10/12 00:51:59;;;;;;;4.20;3.28;;;;;;;16.40;55.57;100024.19;5072480;28;20067;-81
2022/10/12 00:54:36;;;;;;;7.68;2.78;;;;;;;16.74;55.31;100097.84;5071159;28;20489;-81
2022/10/12 00:57:04;;;;;;;4.45;2.80;;;;;;;16.24;55.68;100003.22;5072373;28;20386;-81
2022/10/12 00:59:43;;;;;;;5.55;3.00;;;;;;;17.35;55.29;100174.22;5071047;28;20545;-81
2022/10/12 01:02:08;;;;;;;7.68;2.90;;;;;;;17.38;55.16;100185.28;5072210;28;20059;-81
2022/10/12 01:04:35;;;;;;;5.82;3.28;;;;;;;17.40;55.27;100175.22;5072143;28;20477;-80
2022/10/12 01:07:00;;;;;;;5.03;3.45;;;;;;;16.79;55.26;100082.06;5070878;28;20481;-81
2022/10/12 01:09:27;;;;;;;5.07;3.00;;;;;;;16.99;54.93;100106.06;5072114;28;20142;-81
2022/10/12 01:11:55;;;;;;;2.80;2.17;;;;;;;14.96;55.18;99795.72;5072507;28;20028;-81
2022/10/12 01:14:20;;;;;;;6.07;2.88;;;;;;;17.11;55.38;100140.97;5072119;28;20021;-81
2022/10/12 01:16:50;;;;;;;3.60;2.58;;;;;;;17.38;55.09;100195.16;5072065;28;20032;-81
2022/10/12 01:19:55;;;;;;;5.30;2.97;;;;;;;17.28;55.29;100176.06;5072037;28;20409;-81
2022/10/12 01:22:21;;;;;;;6.00;2.25;;;;;;;16.90;55.13;100104.63;5071827;28;20020;-81
2022/10/12 01:24:53;;;;;;;5.82;2.08;;;;;;;16.79;55.19;100095.38;5070685;28;20447;-81
2022/10/12 01:27:46;;;;;;;8.68;2.67;;;;;;;17.34;55.12;100184.06;5070717;28;20028;-81
2022/10/12 01:30:17;;;;;;;4.90;2.42;;;;;;;17.33;55.04;100186.94;5072087;28;20027;-81
2022/10/12 01:32:48;;;;;;;3.87;2.23;;;;;;;16.79;55.03;100105.22;5072292;28;20394;-80
2022/10/12 01:35:24;;;;;;;4.15;2.20;;;;;;;17.26;55.18;100186.94;5072136;28;20281;-81
2022/10/12 01:38:28;;;;;;;3.83;2.13;;;;;;;17.23;55.19;100182.00;5070747;28;20421;-81
2022/10/12 01:41:07;;;;;;;4.18;1.90;;;;;;;17.14;55.22;100176.06;5080362;28;20029;-81
2022/10/12 01:43:38;;;;;;;6.72;2.53;;;;;;;17.18;55.18;100191.66;5071643;28;20021;-81
2022/10/12 01:46:15;;;;;;;4.57;2.22;;;;;;;17.14;55.29;100189.41;5071840;28;20392;-81
2022/10/12 01:48:44;;;;;;;5.18;2.45;;;;;;;17.17;55.38;100195.34;5070574;28;20036;-81
2022/10/12 01:51:15;;;;;;;2.88;2.08;;;;;;;16.89;55.51;100150.16;5071742;28;20029;-81
2022/10/12 01:54:14;;;;;;;4.15;2.22;;;;;;;16.06;55.41;100027.78;5070167;28;20024;-81
2022/10/12 01:56:47;;;;;;;5.88;2.40;;;;;;;16.56;55.76;100115.44;5063025;28;20489;-81
2022/10/12 01:59:51;;;;;;;5.25;2.50;;;;;;;16.65;55.55;100146.22;5071869;28;20091;-81
2022/10/12 02:02:34;;;;;;;9.73;3.00;;;;;;;16.79;55.77;100158.56;5072105;28;20048;-81
2022/10/12 02:05:05;;;;;;;4.00;2.28;;;;;;;17.06;55.59;100196.75;5074448;28;20038;-81
2022/10/12 02:07:42;;;;;;;5.45;2.38;;;;;;;16.80;55.77;100170.88;5077686;28;20035;-80
2022/10/12 02:10:18;;;;;;;6.20;2.60;;;;;;;16.72;55.71;100147.06;5075795;28;20086;-81
2022/10/12 02:12:48;;;;;;;3.55;2.00;;;;;;;16.45;55.54;100095.53;5071304;28;20059;-81
2022/10/12 02:15:15;;;;;;;5.75;2.35;;;;;;;16.67;55.50;100126.34;5071397;28;20024;-81
2022/10/12 02:17:43;;;;;;;3.22;2.00;;;;;;;16.94;55.81;100206.38;5070003;28;20035;-81
2022/10/12 02:20:13;;;;;;;4.18;2.10;;;;;;;16.67;55.78;100137.00;5069972;28;20462;-81
2022/10/12 02:22:40;;;;;;;3.22;1.85;;;;;;;15.05;55.64;99899.06;5076075;28;20032;-81
2022/10/12 02:25:09;;;;;;;6.63;2.50;;;;;;;15.86;55.84;100021.59;5077699;28;20103;-82
2022/10/12 02:27:39;;;;;;;4.55;2.00;;;;;;;16.47;55.97;100102.31;5078106;28;20099;-81
2022/10/12 02:30:06;;;;;;;3.95;2.25;;;;;;;16.96;55.94;100188.34;5078481;28;20025;-82
2022/10/12 02:32:37;;;;;;;5.60;2.22;;;;;;;17.01;55.90;100205.38;5077112;28;20401;-81
2022/10/12 02:35:11;;;;;;;4.32;1.77;;;;;;;16.95;56.03;100190.19;5082467;28;20029;-82
2022/10/12 02:37:45;;;;;;;4.50;2.00;;;;;;;16.28;55.80;100091.56;5086968;28;20021;-82
2022/10/12 02:40:24;;;;;;;5.72;1.80;;;;;;;16.96;56.02;100202.50;5080867;28;20056;-81
2022/10/12 02:42:55;;;;;;;8.02;2.40;;;;;;;16.67;55.95;100163.69;5076656;28;20022;-81
2022/10/12 02:45:23;;;;;;;4.15;1.80;;;;;;;16.94;56.07;100196.53;5076534;28;20020;-81
2022/10/12 02:47:52;;;;;;;7.30;1.85;;;;;;;16.74;56.00;100171.69;5078060;28;20033;-81
2022/10/12 02:50:20;;;;;;;3.13;2.05;;;;;;;16.89;55.91;100211.50;5077810;28;20081;-81
2022/10/12 02:52:46;;;;;;;4.40;2.20;;;;;;;16.12;56.09;100071.44;5077532;28;20024;-81
2022/10/12 02:55:12;;;;;;;4.10;2.30;;;;;;;15.61;55.85;100017.81;5077752;28;20103;-81
2022/10/12 02:57:38;;;;;;;4.85;2.40;;;;;;;16.47;56.11;100176.09;5077637;28;20074;-81
2022/10/12 03:00:04;;;;;;;5.78;2.58;;;;;;;16.30;55.97;100130.31;5076322;28;20421;-81
2022/10/12 03:02:29;;;;;;;7.72;2.60;;;;;;;16.78;55.83;100202.25;5077408;28;20055;-81
2022/10/12 03:04:55;;;;;;;5.28;2.72;;;;;;;16.87;56.01;100214.38;5076334;28;20104;-81
2022/10/12 03:07:20;;;;;;;7.07;3.00;;;;;;;15.20;55.89;99952.91;5077557;28;20485;-81
2022/10/12 03:09:45;;;;;;;6.00;2.40;;;;;;;16.14;56.38;100128.00;5077252;28;20021;-81
2022/10/12 03:12:11;;;;;;;6.40;2.45;;;;;;;16.11;56.31;100120.41;5076030;28;20062;-81
2022/10/12 03:14:36;;;;;;;7.43;2.97;;;;;;;16.25;56.10;100143.41;5077405;28;20020;-81
2022/10/12 03:17:03;;;;;;;5.57;2.78;;;;;;;16.74;56.22;100209.03;5077504;28;20111;-81
2022/10/12 03:19:29;;;;;;;7.03;2.63;;;;;;;16.70;56.24;100226.44;5077630;28;20024;-81
2022/10/12 03:21:54;;;;;;;6.00;2.47;;;;;;;16.18;56.47;100139.91;5077519;28;20031;-81
2022/10/12 03:24:19;;;;;;;6.90;2.70;;;;;;;16.40;56.10;100175.28;5077400;28;20016;-81
2022/10/12 03:26:45;;;;;;;5.78;2.70;;;;;;;16.43;56.27;100181.03;5077440;28;20052;-81
2022/10/12 03:29:10;;;;;;;8.60;2.85;;;;;;;16.00;56.12;100094.38;5077192;28;20024;-81
2022/10/12 03:31:36;;;;;;;8.98;3.10;;;;;;;16.60;55.91;100209.97;5077291;28;20103;-81
2022/10/12 03:34:01;;;;;;;5.55;2.72;;;;;;;16.65;56.17;100194.19;5074206;28;20095;-80
2022/10/12 03:36:26;;;;;;;6.22;2.80;;;;;;;16.05;56.02;100107.91;5072845;28;20387;-79
2022/10/12 03:38:52;;;;;;;4.72;2.80;;;;;;;16.76;55.86;100215.78;5073972;28;20024;-81
2022/10/12 03:41:17;;;;;;;5.25;2.75;;;;;;;16.77;56.29;100219.28;5073976;28;20025;-81
2022/10/12 03:43:43;;;;;;;4.82;2.60;;;;;;;16.00;55.89;100097.84;5073867;28;20009;-81
2022/10/12 03:46:08;;;;;;;8.65;3.45;;;;;;;15.84;55.94;100133.63;5073774;28;20024;-81
2022/10/12 03:48:33;;;;;;;4.07;2.60;;;;;;;16.12;55.59;100140.72;5072496;28;20477;-81
2022/10/12 03:50:59;;;;;;;6.78;3.63;;;;;;;16.47;56.20;100187.59;5073792;28;20078;-81
2022/10/12 03:53:24;;;;;;;4.03;2.70;;;;;;;15.41;55.75;100015.84;5073654;28;20025;-81
2022/10/12 03:55:50;;;;;;;5.57;2.83;;;;;;;16.02;56.04;100141.09;5073598;28;20020;-81
2022/10/12 03:58:15;;;;;;;5.43;3.33;;;;;;;15.95;56.08;100120.78;5072278;28;20446;-82
2022/10/12 04:00:41;;;;;;;5.57;3.10;;;;;;;15.96;56.04;100125.06;5073601;28;20028;-81
2022/10/12 04:03:06;;;;;;;5.93;3.40;;;;;;;15.86;56.17;100110.28;5073314;28;20041;-81
2022/10/12 04:05:31;;;;;;;5.78;3.28;;;;;;;16.44;56.17;100203.16;5072206;28;20017;-81
2022/10/12 04:07:57;;;;;;;4.50;2.72;;;;;;;16.18;55.92;100182.53;5073444;28;20485;-82
2022/10/12 04:10:22;;;;;;;5.63;3.03;;;;;;;16.10;55.99;100145.41;5071884;28;20504;-81
2022/10/12 04:12:48;;;;;;;4.22;3.20;;;;;;;15.85;56.09;100115.81;5073049;28;20112;-81
2022/10/12 04:15:13;;;;;;;6.25;3.13;;;;;;;15.78;55.93;100098.97;5073385;28;20024;-81
2022/10/12 04:17:39;;;;;;;6.93;3.70;;;;;;;16.31;55.88;100177.25;5073650;28;20024;-81
2022/10/12 04:20:06;;;;;;;7.72;3.58;;;;;;;16.34;55.88;100202.69;5073140;28;20025;-81
2022/10/12 04:22:32;;;;;;;5.82;3.85;;;;;;;16.48;56.29;100213.22;5071755;28;20116;-81
2022/10/12 04:24:57;;;;;;;7.32;3.67;;;;;;;16.68;56.06;100247.97;5071687;28;20054;-81
2022/10/12 04:27:23;;;;;;;5.95;3.88;;;;;;;16.70;55.94;100248.59;5073104;28;20173;-81
2022/10/12 04:29:48;;;;;;;7.68;3.50;;;;;;;16.69;55.93;100233.63;5073059;28;20074;-82
2022/10/12 04:32:13;;;;;;;8.35;3.30;;;;;;;16.64;55.92;100230.72;5072999;28;20029;-81
2022/10/12 04:34:39;;;;;;;9.30;4.00;;;;;;;16.35;55.91;100186.53;5072696;28;20031;-81
2022/10/12 04:37:04;;;;;;;9.70;5.07;;;;;;;15.98;56.02;100128.38;5071528;28;20500;-81
2022/10/12 04:39:30;;;;;;;9.18;4.18;;;;;;;16.39;56.33;100197.63;5071408;28;20024;-80
2022/10/12 04:41:55;;;;;;;6.13;3.85;;;;;;;16.01;56.28;100133.28;5072714;28;20095;-81
2022/10/12 04:44:21;;;;;;;5.18;4.00;;;;;;;15.79;56.16;100112.09;5072074;28;20389;-81
2022/10/12 04:46:47;;;;;;;5.97;3.95;;;;;;;16.34;56.02;100189.38;5072672;28;20028;-82
2022/10/12 04:49:12;;;;;;;10.68;4.40;;;;;;;16.04;55.86;100141.72;5071359;28;20028;-81
2022/10/12 04:51:38;;;;;;;6.57;4.38;;;;;;;16.68;56.01;100231.16;5072582;28;20041;-81
2022/10/12 04:54:03;;;;;;;7.50;4.50;;;;;;;16.08;55.55;100139.47;5072418;28;20029;-81
2022/10/12 04:56:28;;;;;;;8.23;4.32;;;;;;;16.22;55.74;100167.81;5072665;28;20039;-81
2022/10/12 04:58:54;;;;;;;7.93;4.55;;;;;;;16.18;55.86;100158.56;5072397;28;20028;-81
2022/10/12 05:01:19;;;;;;;8.90;4.10;;;;;;;16.36;55.44;100182.84;5072280;28;20024;-81
2022/10/12 05:03:45;;;;;;;8.38;4.85;;;;;;;16.34;55.64;100202.69;5084220;28;20031;-82
2022/10/12 05:06:10;;;;;;;7.25;4.75;;;;;;;16.31;55.83;100195.91;5071126;28;20085;-82
2022/10/12 05:08:36;;;;;;;6.53;4.60;;;;;;;15.04;55.55;100010.94;5083242;28;20027;-81
2022/10/12 05:11:01;;;;;;;9.23;4.97;;;;;;;16.32;56.07;100220.72;5092253;28;20024;-82
2022/10/12 05:13:27;;;;;;;8.68;4.70;;;;;;;15.71;55.91;100116.78;5091051;28;20028;-80
2022/10/12 05:15:53;;;;;;;8.30;4.82;;;;;;;16.43;55.82;100245.00;5090913;28;20105;-82
2022/10/12 05:18:18;;;;;;;6.88;4.63;;;;;;;16.69;55.85;100280.81;5092470;28;20035;-81
2022/10/12 05:20:43;;;;;;;10.40;6.28;;;;;;;16.50;55.95;100229.03;5081656;28;20024;-81
2022/10/12 05:23:12;;;;;;;9.55;4.95;;;;;;;16.44;55.76;100233.31;5071921;28;20393;-81
2022/10/12 05:25:38;;;;;;;11.23;7.15;;;;;;;16.14;56.03;100173.31;5071876;28;20056;-82
2022/10/12 05:28:03;;;;;;;8.80;5.72;;;;;;;16.13;55.65;100161.81;5070390;28;20020;-82
2022/10/12 05:30:29;;;;;;;9.98;4.55;;;;;;;15.69;55.72;100095.66;5070448;28;20032;-81
2022/10/12 05:32:55;;;;;;;13.02;5.72;;;;;;;16.50;55.70;100224.50;5071622;28;20081;-81
2022/10/12 05:35:20;;;;;;;11.15;5.00;;;;;;;16.54;55.77;100240.94;5071730;28;20412;-80
2022/10/12 05:37:45;;;;;;;12.77;5.05;;;;;;;16.23;55.69;100206.75;5071639;28;20413;-81
2022/10/12 05:40:12;;;;;;;7.53;4.78;;;;;;;16.31;55.64;100225.22;5071599;28;20452;-81
2022/10/12 05:42:38;;;;;;;6.70;4.75;;;;;;;16.44;55.93;100262.63;5070276;28;20391;-81
2022/10/12 05:45:04;;;;;;;7.32;4.78;;;;;;;16.65;55.98;100298.19;5070205;28;20158;-80
2022/10/12 05:47:29;;;;;;;12.68;4.35;;;;;;;15.18;55.75;100085.28;5070353;28;20039;-81
2022/10/12 05:49:55;;;;;;;14.98;5.53;;;;;;;15.95;55.71;100163.38;5070116;28;20501;-82
2022/10/12 05:52:20;;;;;;;11.02;4.68;;;;;;;16.62;55.71;100323.41;5072523;28;20117;-83
2022/10/12 05:54:45;;;;;;;9.88;4.75;;;;;;;16.19;55.50;100184.19;5084734;28;20032;-82
2022/10/12 05:57:13;;;;;;;6.72;4.05;;;;;;;16.29;55.18;100194.47;5085616;28;20048;-82
2022/10/12 05:59:39;;;;;;;13.35;6.30;;;;;;;16.72;55.38;100269.72;5083574;28;20024;-81
2022/10/12 06:02:04;;;;;;;12.50;5.85;;;;;;;16.30;55.09;100207.59;5081366;28;20044;-81
2022/10/12 06:04:30;;;;;;;5.70;4.72;;;;;;;16.11;55.45;100182.50;5076155;28;20051;-82
2022/10/12 06:06:55;;;;;;;15.27;6.50;;;;;;;17.04;55.06;100330.34;5083278;28;20552;-81
2022/10/12 06:09:20;;;;;;;9.65;5.72;;;;;;;16.30;55.16;100191.59;5087154;28;20032;-81
2022/10/12 06:11:46;;;;;;;17.35;6.38;;;;;;;15.79;54.98;100098.78;5083572;28;20035;-81
2022/10/12 06:14:11;;;;;;;10.45;4.75;;;;;;;17.09;55.27;100321.75;5074003;28;20028;-80
2022/10/12 06:16:37;;;;;;;9.50;4.68;;;;;;;16.63;54.96;100250.41;5075279;28;20032;-80
2022/10/12 06:19:02;;;;;;;10.05;4.35;;;;;;;15.09;55.09;99976.59;5083040;28;20032;-81
2022/10/12 06:21:28;;;;;;;9.25;3.90;;;;;;;15.66;54.73;100077.44;5088615;28;20040;-82
2022/10/12 06:23:53;;;;;;;8.65;4.25;;;;;;;16.70;54.53;100245.94;5071557;28;20029;-81
2022/10/12 06:26:18;;;;;;;8.40;3.80;;;;;;;16.49;54.77;100211.38;5074243;28;20032;-82
2022/10/12 06:28:44;;;;;;;10.65;4.07;;;;;;;16.67;54.67;100237.50;5072196;28;20085;-83
2022/10/12 06:31:10;;;;;;;11.80;4.18;;;;;;;16.97;55.00;100300.16;5079126;28;20028;-82
2022/10/12 06:33:35;;;;;;;7.95;4.70;;;;;;;17.15;54.71;100297.78;5077179;28;20424;-81
2022/10/12 06:36:01;;;;;;;14.13;7.80;;;;;;;17.17;54.79;100286.91;5088839;28;20031;-82
2022/10/12 06:38:27;;;;;;;15.48;10.65;;;;;;;17.00;54.70;100273.09;5071875;28;20032;-81
2022/10/12 06:40:52;;;;;;;15.00;8.85;;;;;;;17.54;54.46;100333.56;5088752;28;20024;-81
2022/10/12 06:43:18;;;;;;;18.95;7.07;;;;;;;17.17;54.30;100289.56;5089498;28;20021;-82
2022/10/12 06:45:44;;;;;;;10.77;6.50;;;;;;;17.62;54.27;100341.38;5081993;28;20020;-83
2022/10/12 06:48:10;;;;;;;13.85;6.28;;;;;;;17.00;54.12;100235.75;5088880;28;20548;-82
2022/10/12 06:50:35;;;;;;;12.40;5.70;;;;;;;17.02;54.41;100240.88;5084559;28;20029;-82
2022/10/12 06:53:00;;;;;;;15.75;7.78;;;;;;;17.32;54.00;100292.88;5071949;28;20095;-81
2022/10/12 06:55:27;;;;;;;13.80;6.70;;;;;;;17.31;53.99;100285.91;5082390;28;20039;-81
2022/10/12 06:57:54;;;;;;;10.68;4.72;;;;;;;17.42;53.80;100303.97;5074676;28;20099;-81
2022/10/12 07:00:19;;;;;;;16.55;8.70;;;;;;;17.41;53.92;100285.50;5074413;28;20474;-80
2022/10/12 07:02:48;;;;;;;15.52;6.40;;;;;;;17.25;53.73;100259.19;5080674;28;20095;-80
2022/10/12 07:05:15;;;;;;;16.15;5.70;;;;;;;17.01;53.58;100186.69;5070672;28;20028;-81
2022/10/12 07:07:43;;;;;;;9.60;4.78;;;;;;;17.66;53.34;100286.56;5074432;28;20059;-81
2022/10/12 07:10:08;;;;;;;14.27;9.48;;;;;;;17.00;53.22;100210.91;5092771;28;20032;-80
2022/10/12 07:12:37;;;;;;;12.38;6.70;;;;;;;17.79;52.98;100272.38;5077071;28;20024;-80
2022/10/12 07:15:06;;;;;;;11.13;7.03;;;;;;;17.83;52.83;100264.75;5085364;28;20032;-80
2022/10/12 07:17:32;;;;;;;10.98;4.40;;;;;;;17.59;52.60;100239.50;5094339;28;20520;-81
2022/10/12 07:19:58;;;;;;;11.30;4.22;;;;;;;18.08;52.57;100313.88;5091500;28;20052;-80
2022/10/12 07:22:23;;;;;;;8.93;3.92;;;;;;;18.01;52.45;100275.66;5091989;28;20024;-81
2022/10/12 07:24:48;;;;;;;10.82;3.50;;;;;;;18.55;52.53;100354.69;5083631;28;20016;-80
2022/10/12 07:27:15;;;;;;;13.90;5.00;;;;;;;18.02;52.59;100269.28;5073840;28;20029;-82
2022/10/12 07:29:41;;;;;;;5.80;3.13;;;;;;;18.20;52.29;100306.03;5077832;28;20093;-80
2022/10/12 07:32:07;;;;;;;5.03;2.88;;;;;;;18.52;52.39;100349.78;5073880;28;20032;-80
2022/10/12 07:34:32;;;;;;;6.47;4.47;;;;;;;18.63;52.23;100374.06;5077684;28;20173;-80
2022/10/12 07:36:58;;;;;;;9.00;2.85;;;;;;;18.36;52.34;100294.91;5092229;28;20103;-81
2022/10/12 07:39:24;;;;;;;9.52;4.28;;;;;;;17.26;52.26;100117.56;5075382;28;20043;-81
2022/10/12 07:41:50;;;;;;;6.93;3.95;;;;;;;17.72;52.28;100196.78;5074131;28;20024;-81
2022/10/12 07:44:16;;;;;;;5.25;2.60;;;;;;;18.69;52.24;100349.16;5075904;28;20039;-80
2022/10/12 07:46:41;;;;;;;6.85;3.60;;;;;;;18.69;52.11;100351.84;5087589;28;20028;-80
2022/10/12 07:49:07;;;;;;;3.90;2.63;;;;;;;17.82;51.94;100220.38;5090759;28;20446;-80
2022/10/12 07:51:33;;;;;;;9.60;7.22;;;;;;;18.81;51.89;100353.84;5086820;28;20036;-81
2022/10/12 07:53:59;;;;;;;8.45;2.60;;;;;;;17.73;51.59;100182.41;5073533;28;20039;-81
2022/10/12 07:56:25;;;;;;;4.65;2.30;;;;;;;18.62;51.44;100302.06;5073629;28;20107;-80
2022/10/12 07:58:53;;;;;;;3.55;2.10;;;;;;;19.01;51.16;100357.25;5077344;28;20028;-80
2022/10/12 08:01:20;;;;;;;14.30;9.73;;;;;;;19.00;51.10;100351.09;5079486;28;20115;-80
2022/10/12 08:03:47;;;;;;;13.02;3.35;;;;;;;18.86;50.92;100337.97;5084670;28;20412;-81
2022/10/12 08:06:15;;;;;;;8.93;4.07;;;;;;;18.47;50.97;100282.72;5082075;28;20066;-80
2022/10/12 08:08:41;;;;;;;4.85;2.70;;;;;;;18.94;50.80;100351.94;5087951;28;20437;-80
2022/10/12 08:11:07;;;;;;;6.07;3.05;;;;;;;18.98;50.91;100353.16;5091605;28;20024;-81
2022/10/12 08:13:33;;;;;;;3.33;1.73;;;;;;;18.95;50.96;100342.88;5086478;28;20107;-81
2022/10/12 08:15:59;;;;;;;6.65;2.92;;;;;;;18.57;50.68;100285.78;5092200;28;20060;-80
2022/10/12 08:18:25;;;;;;;6.28;2.33;;;;;;;18.38;51.02;100266.09;5077792;28;20024;-80
2022/10/12 08:20:50;;;;;;;3.15;1.77;;;;;;;18.49;50.59;100267.28;5071081;28;20051;-80
2022/10/12 08:23:16;;;;;;;3.35;2.33;;;;;;;18.94;50.82;100345.75;5086827;28;20083;-80
2022/10/12 08:25:42;;;;;;;6.18;2.30;;;;;;;18.15;50.85;100213.13;5083799;28;20043;-80
2022/10/12 08:28:08;;;;;;;7.13;2.30;;;;;;;18.85;51.08;100339.00;5072591;28;20025;-81
2022/10/12 08:30:34;;;;;;;4.85;2.88;;;;;;;18.96;51.07;100365.94;5074582;28;20059;-81
2022/10/12 08:32:59;;;;;;;4.55;2.20;;;;;;;16.70;50.94;99989.97;5090534;28;20088;-80
2022/10/12 08:35:25;;;;;;;10.45;4.40;;;;;;;18.45;51.05;100244.69;5092819;28;20028;-80
2022/10/12 08:37:50;;;;;;;8.52;3.85;;;;;;;18.91;50.81;100320.25;5093068;28;20020;-80
2022/10/12 08:40:22;;;;;;;5.28;2.28;;;;;;;19.03;50.54;100325.75;5091555;28;20020;-80
2022/10/12 08:42:54;;;;;;;;;;;;;;;19.09;50.86;100340.97;5093467;28;20024;-80
2022/10/12 08:45:30;;;;;;;7.40;4.30;;;;;;;18.86;50.36;100290.63;5089699;28;19916;-80
2022/10/12 08:48:00;;;;;;;8.07;3.50;;;;;;;18.93;50.43;100278.03;5079452;28;20025;-80
2022/10/12 08:50:32;;;;;;;7.68;5.22;;;;;;;18.77;50.20;100246.44;5074335;28;20107;-80
2022/10/12 08:53:06;;;;;;;6.53;2.28;;;;;;;19.05;49.96;100283.53;5078509;28;20110;-80
2022/10/12 08:55:38;;;;;;;3.40;2.00;;;;;;;19.53;49.96;100344.66;5073176;28;20032;-80
2022/10/12 08:58:14;;;;;;;5.30;1.92;;;;;;;19.40;49.81;100323.28;5079480;28;20050;-79
2022/10/12 09:00:41;;;;;;;7.50;5.68;;;;;;;19.55;49.82;100348.75;5086710;28;20020;-80
2022/10/12 09:03:38;;;;;;;8.10;3.92;;;;;;;19.55;49.79;100354.13;5088919;28;20044;-79
2022/10/12 09:06:13;;;;;;;4.10;3.38;;;;;;;18.97;49.13;100255.16;5072520;28;20074;-80
2022/10/12 09:08:38;;;;;;;6.07;3.33;;;;;;;19.61;49.16;100337.19;5072724;28;20100;-80
2022/10/12 09:11:22;;;;;;;12.13;5.47;;;;;;;19.26;48.66;100279.69;5079636;28;20127;-80
2022/10/12 09:14:01;;;;;;;5.95;3.00;;;;;;;19.11;48.67;100258.56;5089110;28;20031;-80
2022/10/12 09:16:31;;;;;;;8.13;4.28;;;;;;;19.70;48.74;100336.91;5072146;28;20431;-79
2022/10/12 09:19:06;;;;;;;3.63;2.90;;;;;;;19.75;48.55;100337.88;5071788;28;20077;-80
2022/10/12 09:21:32;;;;;;;6.60;3.17;;;;;;;19.49;48.67;100290.66;5071585;28;20145;-79
2022/10/12 09:23:58;;;;;;;5.20;3.13;;;;;;;19.30;48.28;100251.44;5070329;28;20039;-79
2022/10/12 09:26:36;;;;;;;4.38;1.90;;;;;;;19.33;48.30;100270.59;5073043;28;20489;-78
2022/10/12 09:29:13;;;;;;;3.80;2.20;;;;;;;19.81;47.93;100315.59;5092071;28;20034;-80
2022/10/12 09:32:16;;;;;;;8.23;4.80;;;;;;;20.08;48.00;100340.31;5091680;28;20020;-79
2022/10/12 09:34:42;;;;;;;7.25;5.15;;;;;;;20.06;47.56;100330.81;5084190;28;20078;-80
2022/10/12 09:37:16;;;;;;;6.82;5.05;;;;;;;20.26;47.40;100340.34;5083589;28;20024;-79
2022/10/12 09:39:42;;;;;;;4.50;2.53;;;;;;;19.85;46.76;100278.44;5075942;28;20024;-80
2022/10/12 09:42:09;;;;;;;5.47;3.30;;;;;;;20.17;47.22;100352.41;5084198;28;20558;-79
2022/10/12 09:44:45;;;;;;;6.03;2.28;;;;;;;19.63;46.98;100260.09;5080786;28;20024;-79
2022/10/12 09:47:20;;;;;;;4.07;2.30;;;;;;;20.21;46.88;100331.31;5091447;28;20099;-79
2022/10/12 09:49:50;;;;;;;3.63;1.83;;;;;;;19.91;46.68;100282.91;5081461;28;20052;-79
2022/10/12 09:52:43;;;;;;;5.73;3.37;;;;;;;20.03;46.44;100310.63;5085927;28;20032;-79
2022/10/12 09:55:13;;;;;;;3.60;1.90;;;;;;;20.33;46.49;100323.34;5083074;28;20286;-79
2022/10/12 09:57:41;;;;;;;6.07;4.25;;;;;;;19.61;46.74;100205.09;5080904;28;20024;-79
2022/10/12 10:00:26;;;;;;;3.88;2.58;;;;;;;20.46;46.01;100321.38;5080855;28;20054;-80
2022/10/12 10:02:53;;;;;;;4.18;2.08;;;;;;;20.27;46.31;100301.75;5070368;28;20044;-78
2022/10/12 10:05:32;;;;;;;2.70;2.05;;;;;;;20.47;45.84;100324.88;5091581;28;20024;-79
2022/10/12 10:08:12;;;;;;;5.40;2.22;;;;;;;20.54;45.38;100315.72;5087885;28;20031;-79
2022/10/12 10:10:48;;;;;;;5.18;2.35;;;;;;;20.64;45.03;100317.88;5091269;28;20095;-79
2022/10/12 10:13:15;;;;;;;5.53;3.95;;;;;;;20.29;45.29;100231.81;5078613;28;20389;-79
2022/10/12 10:15:44;;;;;;;7.28;4.05;;;;;;;20.80;45.18;100298.47;5071082;28;20031;-79
2022/10/12 10:18:36;;;;;;;3.35;2.85;;;;;;;21.01;44.86;100299.06;5070944;28;20078;-77
2022/10/12 10:21:05;;;;;;;3.42;2.35;;;;;;;20.60;44.60;100223.59;5071013;28;20090;-78
2022/10/12 10:23:41;;;;;;;5.57;2.28;;;;;;;20.48;44.48;100200.44;5072631;28;20020;-80
2022/10/12 10:26:14;;;;;;;5.15;2.13;;;;;;;21.16;44.40;100296.75;5072669;28;20481;-79
2022/10/12 10:28:42;;;;;;;4.13;2.40;;;;;;;20.98;44.18;100267.28;5075706;28;20033;-79
2022/10/12 10:31:20;;;;;;;3.08;1.70;;;;;;;21.38;43.46;100283.66;5083352;28;20045;-79
2022/10/12 10:34:21;;;;;;;3.70;1.90;;;;;;;21.27;43.25;100279.91;5075960;28;20036;-80
2022/10/12 10:36:51;;;;;;;4.95;2.10;;;;;;;21.61;42.90;100283.72;5075497;28;20357;-80
2022/10/12 10:39:31;;;;;;;5.80;2.20;;;;;;;21.37;42.23;100215.69;5081353;28;20031;-79
2022/10/12 10:42:09;;;;;;;8.80;5.45;;;;;;;21.76;41.26;100240.25;5083746;28;20044;-78
2022/10/12 10:44:35;;;;;;;5.10;4.10;;;;;;;22.05;41.86;100268.09;5085622;28;20048;-78
2022/10/12 10:47:08;;;;;;;6.25;1.77;;;;;;;21.39;41.45;100138.34;5101518;28;20042;-79
2022/10/12 10:49:41;;;;;;;3.60;2.08;;;;;;;20.72;40.85;100081.41;5087992;28;20025;-81
2022/10/12 10:52:25;;;;;;;3.25;2.20;;;;;;;22.27;40.60;100258.34;5098163;28;20488;-79
2022/10/12 10:55:08;;;;;;;4.00;2.25;;;;;;;22.17;39.63;100255.44;5114913;28;20081;-78
2022/10/12 10:57:54;;;;;;;4.10;1.80;;;;;;;21.25;40.18;100118.16;5095458;28;20114;-80
2022/10/12 11:00:21;;;;;;;3.67;2.38;;;;;;;22.07;40.69;100256.03;5074854;28;20086;-80
2022/10/12 11:02:55;;;;;;;4.90;2.20;;;;;;;21.31;40.37;100125.28;5092799;28;20054;-80
2022/10/12 11:05:27;;;;;;;3.55;2.13;;;;;;;21.92;40.48;100207.28;5094396;28;20024;-79
2022/10/12 11:07:53;;;;;;;;;;;;;;;22.19;40.44;100246.09;5094893;28;20023;-79
2022/10/12 11:10:31;;;;;;;4.63;2.47;;;;;;;22.38;40.23;100238.69;5094266;28;19908;-79
2022/10/12 11:13:13;;;;;;;4.63;1.70;;;;;;;22.54;39.69;100212.91;5097441;28;20051;-79
2022/10/12 11:15:49;;;;;;;2.53;1.40;;;;;;;22.09;38.96;100119.47;5091310;28;20504;-79
2022/10/12 11:18:37;;;;;;;4.00;1.67;;;;;;;22.78;37.70;100241.34;5074021;28;20055;-79
2022/10/12 11:21:10;;;;;;;6.47;1.98;;;;;;;22.35;39.07;100185.38;5070806;28;20033;-78
2022/10/12 11:23:38;;;;;;;2.58;1.58;;;;;;;22.62;39.22;100231.38;5073037;28;20481;-78
2022/10/12 11:26:14;;;;;;;3.60;1.60;;;;;;;22.19;38.66;100148.44;5090003;28;20035;-80
2022/10/12 11:28:40;;;;;;;2.78;1.80;;;;;;;22.46;38.37;100189.88;5094155;28;20048;-77
2022/10/12 11:31:16;;;;;;;2.78;1.38;;;;;;;22.08;38.19;100115.13;5094118;28;20028;-79
2022/10/12 11:33:43;;;;;;;5.57;2.17;;;;;;;21.63;38.05;100050.50;5074436;28;20028;-79